Lake City, CO (81235)

9:27 PM MDT on July 25, 2014 (GMT -0600)
Lake City Heights (KCOLAKEC3) Elev 8858 ft | 38.02 °N, 107.31 °W | Change Station

Current weather conditions updated 5 seconds ago

Clear
Clear
58.8 °F
Feels Like 58.8 °F
N
0.0
Wind Variable Wind from West
Gusts 0.0 mph

Tomorrow is forecast to be nearly the same temperature as today. Showers and thunderstorms late.

Today
High -- | Low -- °F
--% Chance of Precip.
Yesterday
High -- | Low -- °F
Precip. -- in
6:06 AM 8:24 PM
Waning Crescent, 1% visible
Pressure 30.44 in
Visibility 10.0 miles
Clouds Clear
Dew Point 42 °F
Humidity 53%
Rainfall 0.00 in
Snow Depth 0 in
UV 0 out of 12
Pollen 7.00 out of 12
Air Quality Not available.
Flu Activity Not available.
METAR KTEX 260316Z AUTO 11007KT 10SM CLR 18/10 A3044 RMK AO2

More Conditions Fewer Conditions

Pressure 30.44 in
Visibility 10.0 miles
Clouds Clear
Dew Point 42 °F
Humidity 53%
Rainfall 0.00 in
Snow Depth 0 in
UV 0 out of 12
Pollen 7.00 out of 12
Air Quality Not available.
Flu Activity Not available.
METAR KTEX 260316Z AUTO 11007KT 10SM CLR 18/10 A3044 RMK AO2

More Conditions Fewer Conditions

10-Day Weather Forecast

Almanac

Astronomy

Jul. 25, 2014 Rise Set
Actual Time 6:06 AM MDT 8:24 PM MDT
Civil Twilight 5:36 AM MDT 8:54 PM MDT
Nautical Twilight 4:59 AM MDT 9:30 PM MDT
Astronomical Twilight 4:19 AM MDT 10:11 PM MDT
Moon 5:07 AM MDT (7/25) 7:24 PM MDT (7/25)
Length of Visible Light 15h 17m
Length of Day
14h 18m
Tomorrow will be 1m 38s shorter.
Waning Crescent, 1% of the Moon is Illuminated
Today
Waning Crescent
Jul 26
New
Aug 3
First Quarter
Aug 10
Full
Aug 17
Last Quarter

Today's Extremes

State Highs State Lows

Community

WunderPhotos

Upload Photos

1,737,499 photos uploaded!

Nearby

Snow Depth

Station Depth Elevation
Slumgullion 0 in 11440 ft
Beartown 0 in 11600 ft
Middle Creek 1 in 11250 ft
Lizard Head Pass 0 in 10200 ft
Cochetopa Pass 0 in 10020 ft

Earthquake Activity

City Distance Mag. Time & Date
No recent earthquake activity has been reported nearby.
Minimum magnitude displayed is 2.5.

Coastal Water Temperatures

Place Temperature
No Stations Reporting

Nearby Weather Stations

Station Location Temp. Dew Point Humidity Wind Precip. Elev Updated Type
Lake City Heights, Lake City, CO 58.8 °F 42 °F 53% West  at  0.0 mph 0.00 in / hr 8858 ft 9:27 PM MDT Rapid Fire
San Juan Hills Subdivision, Lake City, CO 61.3 °F 59 °F 91% SW  at  0.0 mph 0.00 in / hr 8773 ft 7:01 PM MDT Rapid Fire
Elk Creek, Powderhorn, CO 56.1 °F 51 °F 82% WSW  at  2.0 mph 0.00 in / hr 8517 ft 9:27 PM MDT Rapid Fire
Ouray, Ouray, CO 63.4 °F 52 °F 66% SE  at  0.0 mph 0.00 in / hr 7736 ft 9:27 PM MDT Rapid Fire
Powderhorn, CO 57.4 °F 52 °F 84% SSE  at  0.0 mph 0.00 in / hr 8123 ft 8:27 PM MST Normal
Elk Meadows, Ridgway, CO 60.4 °F 50 °F 69% NE  at  0.7 mph 0.00 in / hr 8698 ft 9:27 PM MDT Rapid Fire
RAWS HUNTSMAN MESA CO, Powderhorn, CO 59 °F 52 °F 77% SW  at  8 mph 0.00 in / hr 9399 ft 8:48 PM MDT MADIS

Show More Stations Show Fewer Stations